createdAt,value
2023-06-17T00:00:39.899Z,76.35
2023-06-17T00:01:39.847Z,76.90
2023-06-17T00:02:39.830Z,76.90
2023-06-17T00:03:39.832Z,76.90
2023-06-17T00:04:39.793Z,77.10
2023-06-17T00:05:40.659Z,77.30
2023-06-17T00:06:39.764Z,77.40
2023-06-17T00:07:39.753Z,77.71
2023-06-17T00:08:39.766Z,77.50
2023-06-17T00:09:39.726Z,77.64
2023-06-17T00:10:39.826Z,77.84
2023-06-17T00:11:39.696Z,77.95
2023-06-17T00:12:39.691Z,77.95
2023-06-17T00:13:39.686Z,77.95
2023-06-17T00:14:39.675Z,78.05
2023-06-17T00:15:39.654Z,78.05
2023-06-17T00:16:39.639Z,78.15
2023-06-17T00:17:39.676Z,77.95
2023-06-17T00:18:39.617Z,77.84
2023-06-17T00:19:39.615Z,77.84
2023-06-17T00:20:39.586Z,77.75
2023-06-17T00:21:39.571Z,77.75
2023-06-17T00:22:39.560Z,77.75
2023-06-17T00:23:39.550Z,77.75
2023-06-17T00:24:39.574Z,77.75
2023-06-17T00:25:39.511Z,77.64
2023-06-17T00:26:39.498Z,77.75
2023-06-17T00:27:39.483Z,77.64
2023-06-17T00:28:39.476Z,77.64
2023-06-17T00:29:39.473Z,77.75
2023-06-17T00:30:39.447Z,77.75
2023-06-17T00:31:39.434Z,77.75
2023-06-17T00:32:39.442Z,77.95
2023-06-17T00:33:39.424Z,78.05
2023-06-17T00:34:39.411Z,78.05
2023-06-17T00:35:39.383Z,78.28
2023-06-17T00:36:39.380Z,78.39
2023-06-17T00:37:39.372Z,78.49
2023-06-17T00:38:39.350Z,78.59
2023-06-17T00:39:39.427Z,78.59
2023-06-17T00:40:39.327Z,78.69
2023-06-17T00:41:39.306Z,78.59
2023-06-17T00:42:39.304Z,78.69
2023-06-17T00:43:39.339Z,78.59
2023-06-17T00:44:39.256Z,78.89
2023-06-17T00:45:39.268Z,79.13
2023-06-17T00:46:39.262Z,79.10
2023-06-17T00:47:39.278Z,79.00
2023-06-17T00:48:39.213Z,79.00
2023-06-17T00:49:39.213Z,79.13
2023-06-17T00:50:39.229Z,79.44
2023-06-17T00:51:39.170Z,79.44
2023-06-17T00:52:42.655Z,79.54
2023-06-17T00:53:39.151Z,79.85
2023-06-17T00:54:39.122Z,79.74
2023-06-17T00:55:39.105Z,80.08
2023-06-17T00:56:39.110Z,80.29
2023-06-17T00:57:39.093Z,80.39
2023-06-17T00:58:39.080Z,80.19
2023-06-17T00:59:39.050Z,79.98
2023-06-17T01:00:39.047Z,79.78
2023-06-17T01:01:39.030Z,79.68
2023-06-17T01:02:39.076Z,79.68
2023-06-17T01:03:39.125Z,79.98
2023-06-17T01:04:38.994Z,80.08
2023-06-17T01:05:39.061Z,80.19
2023-06-17T01:06:38.978Z,80.29
2023-06-17T01:07:38.973Z,80.39
2023-06-17T01:08:38.943Z,80.59
2023-06-17T01:09:38.928Z,80.69
2023-06-17T01:10:38.909Z,80.63
2023-06-17T01:11:38.914Z,80.63
2023-06-17T01:12:38.904Z,80.39
2023-06-17T01:13:38.882Z,80.29
2023-06-17T01:14:38.855Z,80.29
2023-06-17T01:15:38.855Z,80.63
2023-06-17T01:16:38.902Z,80.73
2023-06-17T01:17:38.878Z,80.93
2023-06-17T01:18:38.807Z,80.73
2023-06-17T01:19:38.791Z,80.63
2023-06-17T01:20:38.793Z,80.53
2023-06-17T01:21:38.842Z,80.39
2023-06-17T01:22:38.826Z,80.73
2023-06-17T01:23:38.729Z,80.73
2023-06-17T01:24:38.768Z,80.63
2023-06-17T01:25:38.707Z,80.73
2023-06-17T01:26:38.705Z,80.73
2023-06-17T01:27:38.679Z,80.83
2023-06-17T01:28:38.677Z,80.93
2023-06-17T01:29:38.647Z,81.24
2023-06-17T01:30:38.638Z,81.24
2023-06-17T01:31:38.642Z,81.34
2023-06-17T01:32:38.640Z,81.48
2023-06-17T01:33:38.606Z,81.58
2023-06-17T01:34:38.589Z,81.68
2023-06-17T01:35:38.608Z,81.68
2023-06-17T01:36:38.586Z,81.58
2023-06-17T01:37:38.562Z,81.58
2023-06-17T01:38:38.531Z,81.68
2023-06-17T01:39:38.523Z,81.68
2023-06-17T01:40:38.534Z,81.78
2023-06-17T01:41:38.495Z,81.88
2023-06-17T01:42:38.481Z,81.99
2023-06-17T01:43:38.480Z,82.09
2023-06-17T01:44:38.441Z,82.29
2023-06-17T01:45:38.458Z,82.33
2023-06-17T01:46:38.465Z,82.53
2023-06-17T01:47:38.432Z,82.73
2023-06-17T01:48:38.387Z,82.84
2023-06-17T01:49:38.382Z,82.84
2023-06-17T01:50:38.375Z,83.24
2023-06-17T01:51:38.346Z,83.24
2023-06-17T01:52:38.332Z,83.45
2023-06-17T01:53:38.345Z,83.69
2023-06-17T01:54:38.324Z,83.48
2023-06-17T01:55:38.304Z,83.79
2023-06-17T01:56:38.288Z,83.89
2023-06-17T01:57:38.263Z,83.79
2023-06-17T01:58:38.256Z,83.69
2023-06-17T01:59:38.263Z,83.59
2023-06-17T02:00:38.244Z,83.69
2023-06-17T02:01:38.205Z,83.69
2023-06-17T02:02:38.285Z,83.69
2023-06-17T02:03:38.330Z,83.69
2023-06-17T02:04:38.192Z,83.59
2023-06-17T02:05:38.154Z,83.69
2023-06-17T02:06:38.139Z,83.69
2023-06-17T02:07:38.130Z,83.79
2023-06-17T02:08:38.122Z,83.89
2023-06-17T02:09:38.135Z,83.89
2023-06-17T02:10:38.098Z,83.89
2023-06-17T02:11:38.072Z,84.23
2023-06-17T02:12:38.070Z,84.23
2023-06-17T02:13:38.050Z,84.23
2023-06-17T02:14:38.052Z,84.34
2023-06-17T02:15:38.145Z,84.34
2023-06-17T02:16:38.122Z,84.34
2023-06-17T02:17:37.992Z,84.54
2023-06-17T02:18:37.985Z,84.74
2023-06-17T02:19:37.971Z,84.95
2023-06-17T02:20:37.949Z,84.95
2023-06-17T02:21:37.935Z,85.39
2023-06-17T02:22:37.930Z,85.39
2023-06-17T02:23:37.932Z,85.19
2023-06-17T02:24:37.990Z,85.09
2023-06-17T02:25:37.972Z,85.09
2023-06-17T02:26:37.868Z,85.09
2023-06-17T02:27:37.859Z,85.09
2023-06-17T02:28:37.863Z,85.19
2023-06-17T02:29:37.832Z,85.09
2023-06-17T02:30:37.831Z,85.19
2023-06-17T02:31:37.840Z,85.19
2023-06-17T02:32:37.825Z,85.19
2023-06-17T02:33:37.793Z,85.19
2023-06-17T02:34:37.762Z,85.09
2023-06-17T02:35:37.750Z,85.19
2023-06-17T02:36:37.735Z,85.19
2023-06-17T02:37:37.738Z,85.09
2023-06-17T02:38:37.736Z,85.09
2023-06-17T02:39:37.698Z,85.19
2023-06-17T02:40:37.685Z,85.39
2023-06-17T02:41:37.693Z,85.39
2023-06-17T02:42:37.698Z,85.39
2023-06-17T02:43:37.655Z,85.39
2023-06-17T02:44:37.701Z,85.39
2023-06-17T02:45:37.618Z,85.49
2023-06-17T02:46:37.624Z,85.49
2023-06-17T02:47:37.611Z,86.00
2023-06-17T02:48:37.582Z,85.94
2023-06-17T02:49:37.568Z,86.04
2023-06-17T02:50:37.554Z,85.90
2023-06-17T02:51:37.556Z,85.90
2023-06-17T02:52:37.541Z,86.04
2023-06-17T02:53:37.514Z,86.04
2023-06-17T02:54:37.502Z,86.55
2023-06-17T02:55:37.485Z,86.76
2023-06-17T02:56:37.490Z,86.65
2023-06-17T02:57:37.484Z,86.55
2023-06-17T02:58:37.450Z,86.55
2023-06-17T02:59:37.439Z,86.55
2023-06-17T03:00:37.489Z,86.45
2023-06-17T03:01:37.428Z,86.45
2023-06-17T03:02:37.583Z,86.35
2023-06-17T03:03:37.384Z,86.35
2023-06-17T03:04:37.377Z,86.25
2023-06-17T03:05:37.373Z,86.45
2023-06-17T03:06:37.371Z,86.80
2023-06-17T03:07:37.566Z,86.90
2023-06-17T03:08:37.322Z,86.90
2023-06-17T03:09:37.310Z,86.90
2023-06-17T03:10:37.308Z,86.59
2023-06-17T03:11:37.282Z,86.69
2023-06-17T03:12:37.268Z,86.90
2023-06-17T03:13:37.279Z,87.20
2023-06-17T03:14:37.247Z,87.20
2023-06-17T03:15:37.247Z,87.00
2023-06-17T03:16:37.241Z,86.80
2023-06-17T03:17:37.236Z,86.80
2023-06-17T03:18:37.192Z,86.80
2023-06-17T03:19:37.220Z,86.90
2023-06-17T03:20:37.176Z,86.80
2023-06-17T03:21:37.154Z,86.80
2023-06-17T03:22:37.146Z,86.80
2023-06-17T03:23:37.128Z,86.80
2023-06-17T03:24:37.258Z,86.80
2023-06-17T03:25:37.115Z,86.80
2023-06-17T03:26:37.104Z,86.69
2023-06-17T03:27:37.077Z,86.59
2023-06-17T03:28:37.066Z,86.55
2023-06-17T03:29:37.144Z,86.55
2023-06-17T03:30:37.084Z,86.55
2023-06-17T03:31:37.024Z,86.35
2023-06-17T03:32:37.129Z,86.45
2023-06-17T03:33:37.007Z,86.35
2023-06-17T03:34:36.994Z,86.45
2023-06-17T03:35:36.984Z,86.76
2023-06-17T03:36:36.958Z,86.76
2023-06-17T03:37:36.946Z,87.00
2023-06-17T03:38:36.948Z,86.76
2023-06-17T03:39:36.934Z,86.45
2023-06-17T03:40:36.904Z,86.35
2023-06-17T03:41:36.894Z,86.25
2023-06-17T03:42:36.886Z,86.25
2023-06-17T03:43:36.888Z,86.45
2023-06-17T03:44:36.873Z,86.65
2023-06-17T03:45:36.866Z,86.90
2023-06-17T03:46:36.855Z,87.00
2023-06-17T03:47:36.859Z,86.90
2023-06-17T03:48:36.814Z,86.80
2023-06-17T03:49:36.793Z,86.55
2023-06-17T03:50:36.783Z,86.25
2023-06-17T03:51:36.768Z,86.04
2023-06-17T03:52:36.757Z,86.15
2023-06-17T03:53:36.758Z,86.25
2023-06-17T03:54:36.729Z,86.04
2023-06-17T03:55:36.785Z,85.84
2023-06-17T03:56:36.705Z,85.70
2023-06-17T03:57:36.700Z,85.49
2023-06-17T03:58:36.693Z,85.29
2023-06-17T03:59:36.659Z,85.19
2023-06-17T04:00:36.661Z,85.09
2023-06-17T04:01:36.664Z,84.99
2023-06-17T04:02:36.747Z,84.88
2023-06-17T04:03:36.669Z,84.78
2023-06-17T04:04:36.646Z,84.78
2023-06-17T04:05:36.575Z,84.88
2023-06-17T04:06:36.579Z,84.88
2023-06-17T04:07:36.598Z,84.78
2023-06-17T04:08:36.556Z,84.64
2023-06-17T04:09:36.528Z,84.58
2023-06-17T04:10:36.508Z,85.09
2023-06-17T04:11:36.505Z,85.39
2023-06-17T04:12:36.507Z,85.60
2023-06-17T04:13:36.477Z,85.49
2023-06-17T04:14:36.464Z,85.29
2023-06-17T04:15:36.456Z,85.09
2023-06-17T04:16:36.443Z,84.74
2023-06-17T04:17:36.492Z,84.44
2023-06-17T04:18:36.420Z,84.74
2023-06-17T04:19:36.396Z,84.74
2023-06-17T04:20:36.380Z,84.78
2023-06-17T04:21:36.372Z,85.29
2023-06-17T04:22:36.389Z,85.60
2023-06-17T04:23:36.344Z,85.39
2023-06-17T04:24:36.463Z,85.19
2023-06-17T04:25:36.319Z,85.05
2023-06-17T04:26:36.327Z,85.09
2023-06-17T04:27:36.300Z,84.84
2023-06-17T04:28:36.280Z,84.74
2023-06-17T04:29:36.266Z,84.54
2023-06-17T04:30:36.244Z,84.09
2023-06-17T04:31:36.233Z,83.89
2023-06-17T04:32:36.634Z,83.54
2023-06-17T04:33:36.226Z,83.04
2023-06-17T04:34:36.195Z,83.48
2023-06-17T04:35:36.186Z,83.38
2023-06-17T04:36:36.178Z,83.28
2023-06-17T04:37:36.170Z,83.38
2023-06-17T04:38:36.153Z,83.34
2023-06-17T04:39:36.250Z,83.34
2023-06-17T04:40:36.115Z,83.14
2023-06-17T04:41:36.121Z,82.70
2023-06-17T04:42:36.119Z,82.39
2023-06-17T04:43:36.077Z,81.99
2023-06-17T04:44:36.094Z,82.19
2023-06-17T04:45:36.056Z,82.29
2023-06-17T04:46:36.064Z,82.43
2023-06-17T04:47:36.069Z,82.64
2023-06-17T04:48:36.006Z,82.29
2023-06-17T04:49:36.029Z,81.74
2023-06-17T04:50:35.988Z,81.34
2023-06-17T04:51:35.980Z,81.44
2023-06-17T04:52:35.949Z,81.24
2023-06-17T04:53:35.948Z,81.24
2023-06-17T04:54:35.924Z,80.93
2023-06-17T04:55:35.924Z,80.79
2023-06-17T04:56:35.923Z,80.59
2023-06-17T04:57:35.896Z,80.25
2023-06-17T04:58:35.872Z,79.94
2023-06-17T04:59:35.872Z,79.94
2023-06-17T05:00:35.864Z,79.85
2023-06-17T05:01:35.970Z,80.05
2023-06-17T05:02:35.819Z,80.90
2023-06-17T05:03:35.870Z,80.99
2023-06-17T05:04:35.783Z,80.55
2023-06-17T05:05:35.818Z,80.21
2023-06-17T05:06:35.762Z,79.80
2023-06-17T05:07:35.750Z,79.20
2023-06-17T05:08:35.746Z,79.30
2023-06-17T05:09:35.726Z,79.30
2023-06-17T05:10:35.720Z,79.60
2023-06-17T05:11:35.701Z,79.30
2023-06-17T05:12:35.684Z,79.06
2023-06-17T05:13:35.659Z,78.72
2023-06-17T05:14:35.658Z,78.08
2023-06-17T05:15:35.657Z,77.26
2023-06-17T05:16:35.715Z,76.62
2023-06-17T05:17:35.628Z,75.68
2023-06-17T05:18:35.596Z,74.05
2023-06-17T05:19:35.593Z,72.24
2023-06-17T05:20:35.621Z,70.09
2023-06-17T05:21:35.590Z,66.81
2023-06-17T05:22:35.541Z,66.24
2023-06-17T05:23:35.530Z,67.47
2023-06-17T05:24:35.546Z,66.61
2023-06-17T05:25:35.506Z,65.54
2023-06-17T05:26:35.497Z,64.04
2023-06-17T05:27:35.483Z,61.78
2023-06-17T05:28:35.460Z,61.68
2023-06-17T05:29:37.084Z,60.95
2023-06-17T05:30:35.478Z,60.12
2023-06-17T05:31:35.422Z,60.25
2023-06-17T05:32:35.493Z,59.72
2023-06-17T05:33:35.413Z,60.45
2023-06-17T05:34:35.395Z,59.62
2023-06-17T05:35:35.368Z,59.62
2023-06-17T05:36:35.351Z,59.19
2023-06-17T05:37:35.372Z,57.91
2023-06-17T05:38:35.352Z,56.76
2023-06-17T05:39:35.323Z,56.56
2023-06-17T05:40:35.297Z,56.38
2023-06-17T05:41:35.289Z,57.21
2023-06-17T05:42:35.272Z,57.01
2023-06-17T05:43:35.290Z,56.03
2023-06-17T05:44:35.248Z,54.58
2023-06-17T05:45:35.236Z,54.53
2023-06-17T05:46:35.279Z,55.04
2023-06-17T05:47:35.247Z,54.44
2023-06-17T05:48:35.212Z,54.81
2023-06-17T05:49:35.194Z,55.04
2023-06-17T05:50:35.169Z,55.11
2023-06-17T05:51:35.164Z,53.71
2023-06-17T05:52:35.166Z,52.19
2023-06-17T05:53:35.307Z,51.47
2023-06-17T05:54:35.120Z,51.37
2023-06-17T05:55:35.106Z,51.67
2023-06-17T05:56:35.088Z,51.89
2023-06-17T05:57:35.092Z,52.19
2023-06-17T05:58:35.060Z,52.07
2023-06-17T05:59:35.065Z,53.31
2023-06-17T06:00:35.039Z,54.31
2023-06-17T06:01:35.050Z,53.98
2023-06-17T06:02:35.084Z,53.26
2023-06-17T06:03:35.029Z,53.26
2023-06-17T06:04:34.983Z,54.98
2023-06-17T06:05:34.972Z,57.15
2023-06-17T06:06:35.198Z,57.03
2023-06-17T06:07:34.983Z,57.23
2023-06-17T06:08:34.941Z,55.76
2023-06-17T06:09:34.940Z,54.08
2023-06-17T06:10:34.905Z,53.49
2023-06-17T06:11:34.904Z,53.53
2023-06-17T06:12:34.890Z,53.19
2023-06-17T06:13:34.866Z,51.87
2023-06-17T06:14:34.850Z,51.03
2023-06-17T06:15:34.834Z,50.71
2023-06-17T06:16:34.917Z,49.96
2023-06-17T06:17:34.887Z,49.87
2023-06-17T06:18:34.793Z,49.96
2023-06-17T06:19:34.784Z,50.09
2023-06-17T06:20:34.768Z,50.09
2023-06-17T06:21:34.776Z,50.60
2023-06-17T06:22:34.740Z,50.51
2023-06-17T06:23:34.730Z,50.16
2023-06-17T06:24:34.841Z,49.87
2023-06-17T06:25:34.728Z,50.26
2023-06-17T06:26:34.709Z,50.36
2023-06-17T06:27:34.686Z,49.77
2023-06-17T06:28:34.665Z,49.44
2023-06-17T06:29:34.692Z,48.90
2023-06-17T06:30:34.676Z,48.28
2023-06-17T06:31:34.649Z,47.87
2023-06-17T06:32:34.693Z,47.97
2023-06-17T06:33:34.602Z,48.19
2023-06-17T06:34:34.587Z,48.73
2023-06-17T06:35:34.587Z,49.22
2023-06-17T06:36:34.563Z,49.54
2023-06-17T06:37:34.547Z,49.30
2023-06-17T06:38:34.534Z,47.89
2023-06-17T06:39:34.519Z,47.57
2023-06-17T06:40:34.527Z,47.57
2023-06-17T06:41:34.528Z,47.18
2023-06-17T06:42:34.485Z,47.89
2023-06-17T06:43:34.471Z,47.60
2023-06-17T06:44:34.478Z,48.31
2023-06-17T06:45:34.463Z,48.51
2023-06-17T06:46:34.453Z,48.31
2023-06-17T06:47:34.488Z,47.60
2023-06-17T06:48:34.402Z,48.09
2023-06-17T06:49:34.423Z,48.11
2023-06-17T06:50:34.374Z,48.83
2023-06-17T06:51:34.363Z,48.90
2023-06-17T06:52:34.348Z,48.80
2023-06-17T06:53:34.337Z,48.28
2023-06-17T06:54:34.335Z,47.57
2023-06-17T06:55:34.308Z,48.07
2023-06-17T06:56:34.291Z,47.77
2023-06-17T06:57:34.315Z,47.85
2023-06-17T06:58:34.276Z,47.55
2023-06-17T06:59:34.269Z,47.16
2023-06-17T07:00:34.270Z,47.87
2023-06-17T07:01:34.242Z,47.53
2023-06-17T07:02:34.252Z,46.42
2023-06-17T07:03:34.206Z,46.32
2023-06-17T07:04:34.240Z,46.54
2023-06-17T07:05:34.190Z,46.94
2023-06-17T07:06:34.163Z,46.32
2023-06-17T07:07:34.151Z,46.54
2023-06-17T07:08:34.185Z,46.72
2023-06-17T07:09:34.147Z,46.62
2023-06-17T07:10:34.185Z,45.90
2023-06-17T07:11:34.098Z,45.29
2023-06-17T07:12:34.086Z,45.07
2023-06-17T07:13:34.134Z,45.81
2023-06-17T07:14:34.061Z,45.71
2023-06-17T07:15:34.040Z,45.78
2023-06-17T07:16:34.078Z,44.88
2023-06-17T07:17:34.122Z,44.17
2023-06-17T07:18:34.013Z,43.73
2023-06-17T07:19:34.001Z,43.10
2023-06-17T07:20:34.055Z,42.39
2023-06-17T07:21:33.962Z,41.39
2023-06-17T07:22:33.946Z,40.21
2023-06-17T07:23:33.953Z,40.72
2023-06-17T07:24:34.026Z,40.41
2023-06-17T07:25:33.931Z,39.78
2023-06-17T07:26:33.898Z,39.88
2023-06-17T07:27:33.900Z,39.59
2023-06-17T07:28:33.890Z,38.98
2023-06-17T07:29:33.891Z,38.72
2023-06-17T07:30:33.891Z,39.25
2023-06-17T07:31:33.830Z,41.09
2023-06-17T07:32:33.945Z,43.17
2023-06-17T07:33:33.805Z,45.18
2023-06-17T07:34:33.794Z,44.71
2023-06-17T07:35:33.786Z,46.83
2023-06-17T07:36:33.777Z,45.46
2023-06-17T07:37:33.774Z,44.70
2023-06-17T07:38:33.753Z,43.06
2023-06-17T07:39:33.724Z,41.35
2023-06-17T07:40:33.761Z,42.18
2023-06-17T07:41:33.705Z,42.86
2023-06-17T07:42:33.716Z,42.04
2023-06-17T07:43:33.679Z,40.90
2023-06-17T07:44:33.661Z,40.03
2023-06-17T07:45:33.684Z,41.78
2023-06-17T07:46:33.682Z,42.24
2023-06-17T07:47:33.676Z,41.37
2023-06-17T07:48:33.614Z,42.02
2023-06-17T07:49:33.599Z,43.32
2023-06-17T07:50:33.624Z,43.32
2023-06-17T07:51:33.595Z,42.93
2023-06-17T07:52:33.568Z,43.56
2023-06-17T07:53:33.575Z,44.91
2023-06-17T07:54:33.535Z,45.30
2023-06-17T07:55:33.522Z,44.27
2023-06-17T07:56:33.531Z,43.68
2023-06-17T07:57:33.495Z,43.56
2023-06-17T07:58:33.487Z,43.88
2023-06-17T07:59:33.469Z,44.37
2023-06-17T08:00:33.580Z,43.64
2023-06-17T08:01:33.518Z,43.18
2023-06-17T08:02:33.509Z,42.06
2023-06-17T08:03:33.503Z,41.33
2023-06-17T08:04:33.409Z,40.31
2023-06-17T08:05:33.404Z,39.90
2023-06-17T08:06:33.382Z,39.86
2023-06-17T08:07:33.373Z,38.86
2023-06-17T08:08:33.371Z,38.35
2023-06-17T08:09:33.353Z,38.16
2023-06-17T08:10:33.394Z,38.39
2023-06-17T08:11:33.327Z,40.17
2023-06-17T08:12:33.311Z,41.94
2023-06-17T08:13:33.291Z,43.05
2023-06-17T08:14:33.279Z,43.32
2023-06-17T08:15:33.279Z,42.24
2023-06-17T08:16:33.307Z,42.24
2023-06-17T08:17:33.292Z,42.49
2023-06-17T08:18:33.255Z,42.55
2023-06-17T08:19:33.225Z,44.42
2023-06-17T08:20:33.275Z,45.45
2023-06-17T08:21:33.195Z,44.79
2023-06-17T08:22:33.193Z,44.76
2023-06-17T08:23:33.173Z,44.03
2023-06-17T08:24:33.208Z,43.54
2023-06-17T08:25:33.219Z,43.62
2023-06-17T08:26:33.130Z,42.65
2023-06-17T08:27:33.117Z,40.94
2023-06-17T08:28:33.103Z,40.31
2023-06-17T08:29:33.104Z,40.29
2023-06-17T08:30:33.119Z,39.88
2023-06-17T08:31:33.066Z,39.25
2023-06-17T08:32:33.163Z,38.34
2023-06-17T08:33:33.070Z,38.80
2023-06-17T08:34:33.719Z,38.98
2023-06-17T08:35:33.023Z,37.81
2023-06-17T08:36:33.012Z,38.18
2023-06-17T08:37:33.001Z,37.02
2023-06-17T08:38:34.665Z,38.02
2023-06-17T08:39:33.041Z,37.49
2023-06-17T08:40:33.024Z,36.28
2023-06-17T08:41:32.940Z,35.77
2023-06-17T08:42:32.948Z,36.34
2023-06-17T08:43:32.920Z,34.75
2023-06-17T08:44:32.932Z,34.06
2023-06-17T08:45:32.909Z,34.26
2023-06-17T08:46:32.932Z,34.29
2023-06-17T08:47:32.885Z,35.85
2023-06-17T08:48:32.858Z,37.02
2023-06-17T08:49:32.900Z,36.22
2023-06-17T08:50:32.899Z,36.30
2023-06-17T08:51:33.655Z,36.20
2023-06-17T08:52:32.823Z,37.80
2023-06-17T08:53:32.810Z,38.03
2023-06-17T08:54:32.805Z,38.85
2023-06-17T08:55:32.778Z,38.84
2023-06-17T08:56:32.776Z,39.70
2023-06-17T08:57:32.766Z,39.62
2023-06-17T08:58:32.766Z,38.92
2023-06-17T08:59:32.738Z,38.20
2023-06-17T09:00:32.805Z,36.41
2023-06-17T09:01:32.785Z,37.38
2023-06-17T09:02:32.735Z,39.23
2023-06-17T09:03:32.694Z,40.11
2023-06-17T09:04:32.686Z,38.88
2023-06-17T09:05:32.714Z,37.76
2023-06-17T09:06:32.652Z,38.70
2023-06-17T09:07:32.628Z,38.90
2023-06-17T09:08:32.631Z,39.47
2023-06-17T09:09:32.605Z,40.70
2023-06-17T09:10:32.634Z,40.35
2023-06-17T09:11:32.579Z,39.64
2023-06-17T09:12:32.628Z,38.88
2023-06-17T09:13:32.610Z,38.35
2023-06-17T09:14:32.594Z,38.37
2023-06-17T09:15:32.534Z,38.80
2023-06-17T09:16:32.652Z,38.66
2023-06-17T09:17:32.762Z,38.41
2023-06-17T09:18:32.498Z,37.66
2023-06-17T09:19:32.732Z,37.88
2023-06-17T09:20:32.593Z,37.68
2023-06-17T09:21:32.486Z,37.60
2023-06-17T09:22:32.464Z,38.19
2023-06-17T09:23:32.438Z,37.15
2023-06-17T09:24:32.519Z,37.25
2023-06-17T09:25:32.417Z,36.53
2023-06-17T09:26:32.407Z,36.74
2023-06-17T09:27:32.409Z,36.72
2023-06-17T09:28:32.379Z,36.49
2023-06-17T09:29:34.017Z,37.25
2023-06-17T09:30:32.377Z,37.40
2023-06-17T09:31:32.357Z,38.31
2023-06-17T09:32:32.760Z,37.37
2023-06-17T09:33:32.318Z,37.66
2023-06-17T09:34:32.300Z,36.96
2023-06-17T09:35:32.939Z,36.25
2023-06-17T09:36:32.296Z,37.65
2023-06-17T09:37:32.282Z,37.71
2023-06-17T09:38:32.254Z,39.11
2023-06-17T09:39:32.287Z,38.65
2023-06-17T09:40:32.222Z,40.09
2023-06-17T09:41:32.227Z,40.69
2023-06-17T09:42:32.202Z,40.43
2023-06-17T09:43:32.189Z,38.97
2023-06-17T09:44:32.180Z,37.34
2023-06-17T09:45:32.179Z,38.56
2023-06-17T09:46:32.182Z,38.93
2023-06-17T09:47:32.162Z,37.19
2023-06-17T09:48:32.157Z,37.63
2023-06-17T09:49:32.114Z,38.51
2023-06-17T09:50:32.121Z,39.73
2023-06-17T09:51:32.100Z,39.31
2023-06-17T09:52:32.083Z,38.51
2023-06-17T09:53:32.089Z,39.42
2023-06-17T09:54:32.064Z,39.56
2023-06-17T09:55:32.061Z,40.58
2023-06-17T09:56:32.030Z,41.49
2023-06-17T09:57:32.017Z,40.25
2023-06-17T09:58:32.593Z,40.25
2023-06-17T09:59:32.008Z,39.92
2023-06-17T10:00:32.011Z,38.95
2023-06-17T10:01:32.142Z,38.01
2023-06-17T10:02:31.988Z,36.66
2023-06-17T10:03:32.054Z,35.71
2023-06-17T10:04:31.933Z,34.62
2023-06-17T10:05:31.946Z,34.11
2023-06-17T10:06:31.914Z,33.53
2023-06-17T10:07:31.893Z,32.89
2023-06-17T10:08:31.913Z,32.79
2023-06-17T10:09:31.906Z,32.87
2023-06-17T10:10:31.895Z,32.87
2023-06-17T10:11:31.845Z,33.31
2023-06-17T10:12:31.831Z,33.75
2023-06-17T10:13:31.819Z,34.92
2023-06-17T10:14:31.824Z,36.24
2023-06-17T10:15:31.810Z,35.83
2023-06-17T10:16:31.781Z,35.85
2023-06-17T10:17:31.808Z,36.49
2023-06-17T10:18:31.766Z,35.63
2023-06-17T10:19:31.765Z,34.60
2023-06-17T10:20:31.741Z,34.13
2023-06-17T10:21:31.722Z,36.16
2023-06-17T10:22:31.707Z,34.75
2023-06-17T10:23:31.693Z,33.36
2023-06-17T10:24:31.772Z,32.95
2023-06-17T10:25:31.698Z,32.82
2023-06-17T10:26:31.662Z,32.42
2023-06-17T10:27:31.645Z,32.32
2023-06-17T10:28:31.636Z,31.82
2023-06-17T10:29:31.636Z,30.91
2023-06-17T10:30:31.621Z,32.03
2023-06-17T10:31:31.598Z,32.53
2023-06-17T10:32:31.626Z,32.82
2023-06-17T10:33:31.580Z,32.94
2023-06-17T10:34:31.574Z,32.84
2023-06-17T10:35:31.548Z,32.92
2023-06-17T10:36:31.551Z,32.73
2023-06-17T10:37:31.525Z,32.42
2023-06-17T10:38:31.529Z,32.87
2023-06-17T10:39:31.512Z,31.69
2023-06-17T10:40:31.491Z,31.66
2023-06-17T10:41:31.501Z,31.96
2023-06-17T10:42:31.464Z,34.31
2023-06-17T10:43:31.462Z,35.14
2023-06-17T10:44:31.533Z,36.49
2023-06-17T10:45:31.486Z,36.77
2023-06-17T10:46:31.419Z,35.83
2023-06-17T10:47:31.469Z,34.78
2023-06-17T10:48:31.419Z,33.58
2023-06-17T10:49:31.383Z,33.45
2023-06-17T10:50:31.373Z,32.94
2023-06-17T10:51:41.419Z,32.13
2023-06-17T10:52:32.382Z,32.23
2023-06-17T10:53:31.329Z,32.11
2023-06-17T10:54:31.320Z,32.08
2023-06-17T10:55:31.308Z,31.76
2023-06-17T10:56:31.293Z,31.06
2023-06-17T10:57:31.314Z,31.69
2023-06-17T10:58:31.276Z,30.98
2023-06-17T10:59:31.276Z,31.79
2023-06-17T11:00:31.247Z,31.62
2023-06-17T11:01:31.228Z,31.75
2023-06-17T11:02:31.387Z,32.46
2023-06-17T11:03:31.345Z,33.14
2023-06-17T11:04:31.198Z,32.82
2023-06-17T11:05:31.180Z,32.40
2023-06-17T11:06:31.186Z,31.76
2023-06-17T11:07:32.176Z,30.35
2023-06-17T11:08:31.151Z,29.44
2023-06-17T11:09:31.142Z,29.33
2023-06-17T11:10:31.174Z,29.66
2023-06-17T11:11:31.134Z,30.83
2023-06-17T11:12:31.120Z,31.16
2023-06-17T11:13:31.110Z,31.45
2023-06-17T11:14:31.093Z,32.26
2023-06-17T11:15:31.068Z,32.48
2023-06-17T11:16:31.092Z,32.71
2023-06-17T11:17:31.061Z,32.71
2023-06-17T11:18:31.023Z,33.02
2023-06-17T11:19:31.017Z,33.65
2023-06-17T11:20:31.004Z,34.36
2023-06-17T11:21:31.014Z,35.10
2023-06-17T11:22:30.981Z,35.71
2023-06-17T11:23:30.958Z,35.54
2023-06-17T11:24:31.028Z,35.60
2023-06-17T11:25:43.720Z,34.65
2023-06-17T11:26:30.942Z,34.24
2023-06-17T11:27:30.918Z,33.54
2023-06-17T11:28:30.901Z,33.25
2023-06-17T11:29:30.919Z,32.43
2023-06-17T11:30:30.920Z,33.15
2023-06-17T11:31:30.878Z,32.97
2023-06-17T11:32:30.908Z,33.79
2023-06-17T11:33:30.842Z,33.89
2023-06-17T11:34:30.823Z,33.70
2023-06-17T11:35:30.830Z,34.10
2023-06-17T11:36:30.796Z,33.62
2023-06-17T11:37:30.788Z,33.95
2023-06-17T11:38:30.789Z,34.56
2023-06-17T11:39:30.793Z,35.05
2023-06-17T11:40:30.781Z,35.14
2023-06-17T11:41:30.741Z,35.64
2023-06-17T11:42:30.718Z,36.13
2023-06-17T11:43:30.709Z,36.82
2023-06-17T11:44:30.707Z,36.15
2023-06-17T11:45:30.740Z,36.46
2023-06-17T11:46:30.710Z,37.36
2023-06-17T11:47:30.677Z,38.09
2023-06-17T11:48:30.671Z,38.30
2023-06-17T11:49:30.649Z,37.49
2023-06-17T11:50:30.618Z,37.07
2023-06-17T11:51:31.679Z,36.46
2023-06-17T11:52:30.591Z,37.07
2023-06-17T11:53:30.583Z,36.05
2023-06-17T11:54:30.586Z,36.03
2023-06-17T11:55:30.557Z,35.72
2023-06-17T11:56:30.543Z,35.39
2023-06-17T11:57:30.529Z,35.16
2023-06-17T11:58:30.517Z,34.75
2023-06-17T11:59:30.519Z,34.34
2023-06-17T12:00:30.493Z,33.72
2023-06-17T12:01:30.502Z,32.39
2023-06-17T12:02:30.616Z,30.87
2023-06-17T12:03:30.498Z,29.88
2023-06-17T12:04:30.492Z,30.58
2023-06-17T12:05:30.439Z,31.19
2023-06-17T12:06:30.424Z,30.81
2023-06-17T12:07:30.408Z,32.86
2023-06-17T12:08:30.390Z,33.87
2023-06-17T12:09:30.395Z,33.43
2023-06-17T12:10:30.366Z,33.54
2023-06-17T12:11:30.366Z,33.97
2023-06-17T12:12:30.342Z,34.18
2023-06-17T12:13:30.332Z,34.38
2023-06-17T12:14:30.333Z,33.56
2023-06-17T12:16:30.293Z,33.92
2023-06-17T12:17:30.313Z,33.87
2023-06-17T12:18:30.284Z,33.77
2023-06-17T12:19:30.267Z,32.19
2023-06-17T12:20:30.247Z,33.85
2023-06-17T12:21:30.233Z,34.90
2023-06-17T12:22:30.212Z,34.47
2023-06-17T12:23:30.226Z,33.54
2023-06-17T12:24:30.321Z,34.15
2023-06-17T12:25:30.185Z,34.23
2023-06-17T12:26:30.166Z,33.80
2023-06-17T12:27:30.152Z,33.54
2023-06-17T12:28:30.152Z,32.42
2023-06-17T12:29:30.127Z,31.79
2023-06-17T12:30:30.112Z,30.75
2023-06-17T12:31:30.106Z,30.00
2023-06-17T12:32:30.135Z,31.90
2023-06-17T12:33:30.113Z,31.62
2023-06-17T12:34:30.073Z,30.58
2023-06-17T12:35:30.053Z,30.77
2023-06-17T12:36:30.036Z,29.90
2023-06-17T12:37:30.059Z,30.88
2023-06-17T12:38:30.023Z,30.80
2023-06-17T12:39:30.002Z,31.16
2023-06-17T12:40:29.998Z,31.55
2023-06-17T12:41:29.997Z,30.71
2023-06-17T12:42:29.982Z,29.77
2023-06-17T12:43:29.963Z,29.04
2023-06-17T12:44:29.942Z,29.13
2023-06-17T12:45:29.925Z,28.80
2023-06-17T12:46:30.021Z,28.20
2023-06-17T12:47:29.961Z,29.04
2023-06-17T12:48:29.909Z,29.95
2023-06-17T12:49:29.905Z,30.26
2023-06-17T12:50:29.880Z,29.98
2023-06-17T12:51:29.891Z,30.44
2023-06-17T12:52:29.872Z,30.62
2023-06-17T12:53:29.842Z,30.02